createdAt,value
2018-02-19T00:00:09.522Z,13.50
2018-02-19T00:02:37.115Z,12.52
2018-02-19T00:05:04.889Z,13.30
2018-02-19T00:07:32.454Z,15.30
2018-02-19T00:10:00.021Z,14.52
2018-02-19T00:12:27.818Z,13.90
2018-02-19T00:14:55.497Z,14.13
2018-02-19T00:17:23.942Z,14.18
2018-02-19T00:19:51.538Z,14.23
2018-02-19T00:22:19.140Z,13.27
2018-02-19T00:24:46.703Z,13.30
2018-02-19T00:27:14.271Z,14.70
2018-02-19T00:29:41.855Z,14.40
2018-02-19T00:32:10.271Z,14.48
2018-02-19T00:34:37.959Z,14.50
2018-02-19T00:37:05.539Z,13.62
2018-02-19T00:39:33.251Z,14.73
2018-02-19T00:42:00.835Z,16.62
2018-02-19T00:44:28.422Z,14.65
2018-02-19T00:46:55.988Z,14.00
2018-02-19T00:49:23.576Z,15.60
2018-02-19T00:51:51.167Z,15.90
2018-02-19T00:54:18.727Z,14.80
2018-02-19T00:56:46.307Z,13.98
2018-02-19T00:59:13.900Z,12.98
2018-02-19T01:01:42.301Z,13.90
2018-02-19T01:04:09.850Z,14.85
2018-02-19T01:06:37.422Z,16.40
2018-02-19T01:09:05.011Z,14.05
2018-02-19T01:11:32.562Z,16.25
2018-02-19T01:14:00.163Z,16.27
2018-02-19T01:16:28.550Z,15.82
2018-02-19T01:18:56.936Z,15.93
2018-02-19T01:21:24.543Z,16.23
2018-02-19T01:23:52.330Z,16.12
2018-02-19T01:26:19.919Z,13.82
2018-02-19T01:28:47.478Z,11.93
2018-02-19T01:31:15.075Z,14.27
2018-02-19T01:33:42.641Z,11.95
2018-02-19T01:36:10.238Z,15.02
2018-02-19T01:38:38.582Z,14.35
2018-02-19T01:41:06.182Z,14.48
2018-02-19T01:43:33.783Z,14.25
2018-02-19T01:46:01.387Z,15.13
2018-02-19T01:48:29.881Z,13.90
2018-02-19T01:50:57.434Z,14.30
2018-02-19T01:53:25.803Z,12.77
2018-02-19T01:55:54.142Z,15.65
2018-02-19T01:58:21.731Z,13.88
2018-02-19T02:00:50.063Z,14.80
2018-02-19T02:03:17.654Z,13.32
2018-02-19T02:05:45.226Z,14.52
2018-02-19T02:08:13.577Z,13.60
2018-02-19T02:10:41.135Z,13.73
2018-02-19T02:13:08.734Z,14.95
2018-02-19T02:15:37.242Z,14.25
2018-02-19T02:18:04.859Z,13.98
2018-02-19T02:20:33.211Z,13.60
2018-02-19T02:23:00.790Z,13.00
2018-02-19T02:25:28.554Z,13.43
2018-02-19T02:27:56.110Z,14.20
2018-02-19T02:30:23.719Z,14.00
2018-02-19T02:32:51.270Z,13.82
2018-02-19T02:35:18.830Z,13.40
2018-02-19T02:37:46.423Z,13.98
2018-02-19T02:40:15.521Z,14.43
2018-02-19T02:42:43.121Z,12.77
2018-02-19T02:45:11.577Z,13.85
2018-02-19T02:47:39.173Z,13.23
2018-02-19T02:50:06.756Z,15.45
2018-02-19T02:52:34.387Z,13.13
2018-02-19T02:55:02.047Z,12.00
2018-02-19T02:57:29.854Z,12.60
2018-02-19T02:59:57.419Z,13.30
2018-02-19T03:02:24.983Z,14.63
2018-02-19T03:04:52.570Z,14.65
2018-02-19T03:07:20.906Z,13.32
2018-02-19T03:09:48.635Z,16.42
2018-02-19T03:12:16.330Z,13.57
2018-02-19T03:14:43.928Z,14.20
2018-02-19T03:17:12.246Z,14.25
2018-02-19T03:19:39.830Z,15.82
2018-02-19T03:22:07.402Z,16.12
2018-02-19T03:24:35.074Z,13.68
2018-02-19T03:27:03.472Z,13.52
2018-02-19T03:29:31.026Z,14.80
2018-02-19T03:31:58.647Z,15.45
2018-02-19T03:34:26.352Z,12.35
2018-02-19T03:36:54.695Z,15.15
2018-02-19T03:39:22.246Z,14.38
2018-02-19T03:41:49.864Z,15.27
2018-02-19T03:44:17.575Z,13.95
2018-02-19T03:46:45.225Z,10.77
2018-02-19T03:49:12.810Z,12.25
2018-02-19T03:51:41.302Z,15.15
2018-02-19T03:54:08.907Z,11.82
2018-02-19T03:56:36.496Z,14.10
2018-02-19T03:59:04.251Z,12.70
2018-02-19T04:01:33.323Z,13.00
2018-02-19T04:04:00.899Z,13.32
2018-02-19T04:06:28.671Z,13.00
2018-02-19T04:08:56.383Z,13.98
2018-02-19T04:11:23.951Z,12.80
2018-02-19T04:13:51.506Z,13.00
2018-02-19T04:16:19.122Z,13.90
2018-02-19T04:18:47.543Z,13.02
2018-02-19T04:21:15.323Z,11.23
2018-02-19T04:23:42.883Z,14.23
2018-02-19T04:26:10.577Z,13.00
2018-02-19T04:28:38.135Z,13.23
2018-02-19T04:31:05.694Z,15.95
2018-02-19T04:33:34.059Z,11.93
2018-02-19T04:36:01.729Z,12.00
2018-02-19T04:38:29.487Z,11.88
2018-02-19T04:40:57.049Z,14.63
2018-02-19T04:43:24.649Z,13.02
2018-02-19T04:45:52.210Z,12.15
2018-02-19T04:48:19.818Z,10.13
2018-02-19T04:50:47.375Z,11.65
2018-02-19T04:53:15.088Z,13.23
2018-02-19T04:55:42.688Z,11.40
2018-02-19T04:58:10.240Z,8.48
2018-02-19T05:00:37.826Z,11.38
2018-02-19T05:03:06.230Z,12.65
2018-02-19T05:05:33.851Z,12.15
2018-02-19T05:08:01.414Z,12.63
2018-02-19T05:10:29.022Z,13.00
2018-02-19T05:12:56.583Z,11.77
2018-02-19T05:15:24.151Z,13.15
2018-02-19T05:17:51.820Z,13.05
2018-02-19T05:20:19.410Z,12.82
2018-02-19T05:22:47.002Z,12.45
2018-02-19T05:25:14.558Z,9.85
2018-02-19T05:27:42.156Z,11.93
2018-02-19T05:30:09.728Z,7.00
2018-02-19T05:32:37.286Z,8.65
2018-02-19T05:35:04.870Z,11.88
2018-02-19T05:37:33.194Z,11.80
2018-02-19T05:40:00.906Z,12.70
2018-02-19T05:42:29.249Z,13.50
2018-02-19T05:44:57.823Z,11.73
2018-02-19T05:47:25.394Z,11.57
2018-02-19T05:49:52.991Z,12.10
2018-02-19T05:52:21.430Z,9.75
2018-02-19T05:54:49.079Z,11.07
2018-02-19T05:57:16.690Z,11.88
2018-02-19T05:59:45.091Z,12.32
2018-02-19T06:02:12.687Z,11.80
2018-02-19T06:04:40.263Z,12.60
2018-02-19T06:07:07.851Z,10.70
2018-02-19T06:09:36.177Z,12.00
2018-02-19T06:12:03.863Z,11.48
2018-02-19T06:14:31.528Z,12.73
2018-02-19T06:16:59.199Z,14.10
2018-02-19T06:19:27.762Z,14.45
2018-02-19T06:21:55.330Z,15.38
2018-02-19T06:24:22.922Z,15.90
2018-02-19T06:26:50.491Z,15.18
2018-02-19T06:29:18.056Z,11.52
2018-02-19T06:31:45.846Z,11.15
2018-02-19T06:34:13.439Z,12.85
2018-02-19T06:36:41.775Z,14.05
2018-02-19T06:39:09.354Z,14.30
2018-02-19T06:41:36.978Z,12.13
2018-02-19T06:44:04.543Z,14.40
2018-02-19T06:46:32.099Z,13.62
2018-02-19T06:48:59.837Z,12.18
2018-02-19T06:51:27.417Z,12.93
2018-02-19T06:53:55.050Z,13.62
2018-02-19T06:56:22.627Z,13.65
2018-02-19T06:58:50.218Z,15.73
2018-02-19T07:01:17.779Z,12.43
2018-02-19T07:03:45.371Z,13.60
2018-02-19T07:06:13.809Z,12.68
2018-02-19T07:08:41.546Z,13.60
2018-02-19T07:11:09.173Z,11.98
2018-02-19T07:13:37.515Z,12.02
2018-02-19T07:16:05.101Z,13.20
2018-02-19T07:18:33.478Z,12.48
2018-02-19T07:21:01.831Z,13.38
2018-02-19T07:23:29.402Z,13.95
2018-02-19T07:25:57.000Z,13.20
2018-02-19T07:28:24.580Z,12.77
2018-02-19T07:30:52.128Z,13.10
2018-02-19T07:33:19.711Z,9.95
2018-02-19T07:35:47.341Z,13.75
2018-02-19T07:38:14.943Z,10.95
2018-02-19T07:40:42.511Z,10.60
2018-02-19T07:43:10.254Z,10.80
2018-02-19T07:45:37.825Z,11.95
2018-02-19T07:48:05.500Z,12.65
2018-02-19T07:50:33.826Z,13.25
2018-02-19T07:53:01.398Z,11.50
2018-02-19T07:55:29.002Z,12.20
2018-02-19T07:57:57.339Z,13.60
2018-02-19T08:00:24.950Z,14.02
2018-02-19T08:02:52.518Z,14.07
2018-02-19T08:05:20.243Z,13.70
2018-02-19T08:07:47.867Z,16.40
2018-02-19T08:10:15.403Z,13.18
2018-02-19T08:12:43.199Z,15.23
2018-02-19T08:15:10.754Z,14.65
2018-02-19T08:17:38.443Z,15.38
2018-02-19T08:20:06.091Z,13.70
2018-02-19T08:22:33.810Z,12.20
2018-02-19T08:25:01.371Z,12.43
2018-02-19T08:27:28.943Z,12.48
2018-02-19T08:29:56.540Z,12.70
2018-02-19T08:32:24.155Z,12.23
2018-02-19T08:34:51.750Z,13.57
2018-02-19T08:37:19.315Z,12.25
2018-02-19T08:39:46.904Z,14.30
2018-02-19T08:42:14.463Z,14.00
2018-02-19T08:44:42.059Z,14.35
2018-02-19T08:47:09.614Z,13.05
2018-02-19T08:49:37.222Z,12.45
2018-02-19T08:52:05.550Z,14.10
2018-02-19T08:54:33.170Z,17.75
2018-02-19T08:57:01.531Z,15.85
2018-02-19T08:59:30.009Z,15.32
2018-02-19T09:01:58.379Z,15.50
2018-02-19T09:04:26.723Z,16.20
2018-02-19T09:06:54.384Z,15.70
2018-02-19T09:09:21.966Z,19.05
2018-02-19T09:11:51.105Z,16.08
2018-02-19T09:14:18.673Z,16.27
2018-02-19T09:16:46.283Z,14.45
2018-02-19T09:19:13.918Z,16.00
2018-02-19T09:21:41.571Z,13.48
2018-02-19T09:24:09.175Z,16.77
2018-02-19T09:26:36.736Z,16.95
2018-02-19T09:29:05.166Z,17.20
2018-02-19T09:31:32.882Z,16.02
2018-02-19T09:34:01.398Z,14.40
2018-02-19T09:36:28.951Z,17.95
2018-02-19T09:38:56.552Z,17.80
2018-02-19T09:41:24.139Z,14.85
2018-02-19T09:43:52.550Z,17.45
2018-02-19T09:46:20.167Z,18.20
2018-02-19T09:48:48.602Z,17.95
2018-02-19T09:51:16.199Z,15.73
2018-02-19T09:53:43.891Z,13.62
2018-02-19T09:56:11.488Z,15.95
2018-02-19T09:58:39.057Z,16.30
2018-02-19T10:01:06.650Z,15.55
2018-02-19T10:03:34.983Z,17.05
2018-02-19T10:06:02.591Z,15.38
2018-02-19T10:08:30.958Z,16.20
2018-02-19T10:10:59.282Z,14.45
2018-02-19T10:13:26.866Z,17.20
2018-02-19T10:15:54.424Z,16.65
2018-02-19T10:18:22.018Z,15.70
2018-02-19T10:20:50.363Z,15.63
2018-02-19T10:23:17.983Z,15.43
2018-02-19T10:25:45.551Z,17.05
2018-02-19T10:28:13.122Z,15.30
2018-02-19T10:30:40.702Z,16.15
2018-02-19T10:33:08.259Z,16.42
2018-02-19T10:35:35.866Z,17.75
2018-02-19T10:38:03.422Z,15.90
2018-02-19T10:40:31.163Z,15.00
2018-02-19T10:42:59.484Z,15.95
2018-02-19T10:45:27.047Z,15.95
2018-02-19T10:47:54.842Z,16.10
2018-02-19T10:50:22.408Z,15.40
2018-02-19T10:52:50.016Z,17.37
2018-02-19T10:55:17.599Z,16.02
2018-02-19T10:57:45.206Z,17.15
2018-02-19T11:00:13.625Z,17.87
2018-02-19T11:02:41.226Z,17.02
2018-02-19T11:05:08.784Z,16.98
2018-02-19T11:07:37.223Z,16.62
2018-02-19T11:10:04.851Z,17.75
2018-02-19T11:12:32.618Z,20.17
2018-02-19T11:15:00.226Z,17.83
2018-02-19T11:17:27.874Z,14.75
2018-02-19T11:19:55.466Z,16.80
2018-02-19T11:22:23.832Z,15.85
2018-02-19T11:24:51.454Z,16.42
2018-02-19T11:27:19.104Z,15.45
2018-02-19T11:29:46.771Z,15.95
2018-02-19T11:32:14.346Z,16.77
2018-02-19T11:34:41.951Z,15.52
2018-02-19T11:37:10.275Z,16.20
2018-02-19T11:39:37.835Z,15.20
2018-02-19T11:42:05.440Z,14.15
2018-02-19T11:44:33.914Z,14.00
2018-02-19T11:47:02.391Z,16.10
2018-02-19T11:49:30.843Z,16.35
2018-02-19T11:51:58.418Z,16.25
2018-02-19T11:54:26.047Z,14.40
2018-02-19T11:56:53.624Z,15.48
2018-02-19T11:59:21.215Z,16.00
2018-02-19T12:01:49.560Z,15.25
2018-02-19T12:04:17.200Z,15.18
2018-02-19T12:06:44.911Z,15.75
2018-02-19T12:09:13.820Z,16.40
2018-02-19T12:11:41.379Z,16.27
2018-02-19T12:14:08.935Z,16.25
2018-02-19T12:16:36.530Z,16.17
2018-02-19T12:19:04.087Z,16.33
2018-02-19T12:21:31.697Z,16.33
2018-02-19T12:24:00.040Z,14.80
2018-02-19T12:26:27.668Z,16.20
2018-02-19T12:28:55.235Z,16.62
2018-02-19T12:31:22.831Z,14.55
2018-02-19T12:33:50.535Z,15.25
2018-02-19T12:36:18.192Z,16.15
2018-02-19T12:38:46.627Z,15.98
2018-02-19T12:41:14.402Z,16.42
2018-02-19T12:43:42.017Z,15.05
2018-02-19T12:46:09.614Z,16.98
2018-02-19T12:48:37.206Z,17.70
2018-02-19T12:51:04.799Z,16.12
2018-02-19T12:53:32.412Z,16.92
2018-02-19T12:56:00.732Z,17.70
2018-02-19T12:58:28.447Z,16.35
2018-02-19T13:00:56.825Z,18.37
2018-02-19T13:03:25.212Z,15.77
2018-02-19T13:05:53.702Z,17.15
2018-02-19T13:08:21.284Z,16.00
2018-02-19T13:10:48.883Z,14.82
2018-02-19T13:13:16.439Z,14.23
2018-02-19T13:15:44.090Z,15.05
2018-02-19T13:18:11.722Z,15.23
2018-02-19T13:20:39.331Z,16.10
2018-02-19T13:23:07.693Z,14.27
2018-02-19T13:25:35.237Z,15.05
2018-02-19T13:28:02.831Z,15.23
2018-02-19T13:30:31.162Z,14.52
2018-02-19T13:32:58.908Z,15.60
2018-02-19T13:35:26.515Z,18.17
2018-02-19T13:37:54.199Z,17.23
2018-02-19T13:40:22.537Z,16.50
2018-02-19T13:42:50.126Z,17.65
2018-02-19T13:45:18.462Z,15.30
2018-02-19T13:47:46.251Z,16.80
2018-02-19T13:50:13.890Z,19.00
2018-02-19T13:52:41.464Z,16.08
2018-02-19T13:55:09.847Z,18.08
2018-02-19T13:57:38.194Z,16.35
2018-02-19T14:00:05.835Z,16.92
2018-02-19T14:02:33.506Z,17.33
2018-02-19T14:05:01.155Z,18.30
2018-02-19T14:07:28.718Z,18.60
2018-02-19T14:09:56.315Z,18.35
2018-02-19T14:12:23.898Z,17.87
2018-02-19T14:14:52.272Z,19.15
2018-02-19T14:17:20.637Z,17.05
2018-02-19T14:19:48.209Z,17.98
2018-02-19T14:22:16.682Z,15.45
2018-02-19T14:24:45.052Z,16.67
2018-02-19T14:27:13.419Z,18.27
2018-02-19T14:29:41.007Z,17.58
2018-02-19T14:32:09.367Z,17.65
2018-02-19T14:34:36.944Z,17.67
2018-02-19T14:37:05.291Z,20.75
2018-02-19T14:39:32.873Z,17.02
2018-02-19T14:42:01.244Z,18.85
2018-02-19T14:44:29.766Z,18.48
2018-02-19T14:46:57.470Z,19.67
2018-02-19T14:49:25.115Z,18.62
2018-02-19T14:51:52.803Z,19.75
2018-02-19T14:54:21.849Z,19.52
2018-02-19T14:56:49.642Z,19.23
2018-02-19T14:59:17.258Z,18.75
2018-02-19T15:01:44.881Z,18.98
2018-02-19T15:04:13.263Z,20.52
2018-02-19T15:06:41.634Z,18.83
2018-02-19T15:09:10.016Z,18.25
2018-02-19T15:11:38.407Z,19.90
2018-02-19T15:14:06.003Z,20.48
2018-02-19T15:16:33.730Z,18.98
2018-02-19T15:19:02.087Z,19.33
2018-02-19T15:21:30.496Z,20.25
2018-02-19T15:23:58.161Z,19.80
2018-02-19T15:26:25.724Z,19.52
2018-02-19T15:28:53.319Z,17.92
2018-02-19T15:31:20.900Z,20.20
2018-02-19T15:33:49.279Z,20.20
2018-02-19T15:36:17.638Z,19.02
2018-02-19T15:38:45.399Z,18.50
2018-02-19T15:41:12.974Z,19.05
2018-02-19T15:43:40.581Z,18.60
2018-02-19T15:46:08.210Z,20.75
2018-02-19T15:48:36.711Z,19.60
2018-02-19T15:51:04.298Z,20.00
2018-02-19T15:53:31.903Z,20.62
2018-02-19T15:56:00.379Z,19.00
2018-02-19T15:58:28.866Z,19.98
2018-02-19T16:00:56.398Z,21.80
2018-02-19T16:03:24.175Z,19.75
2018-02-19T16:05:52.710Z,20.42
2018-02-19T16:08:20.406Z,19.60
2018-02-19T16:10:48.002Z,19.58
2018-02-19T16:13:15.562Z,18.75
2018-02-19T16:15:43.183Z,20.48
2018-02-19T16:18:10.744Z,20.23
2018-02-19T16:20:38.824Z,20.55
2018-02-19T16:23:07.182Z,20.12
2018-02-19T16:25:34.774Z,20.23
2018-02-19T16:28:03.127Z,20.83
2018-02-19T16:30:30.703Z,21.30
2018-02-19T16:32:59.157Z,21.73
2018-02-19T16:35:26.735Z,20.48
2018-02-19T16:37:55.176Z,19.98
2018-02-19T16:40:22.749Z,20.40
2018-02-19T16:42:50.319Z,19.42
2018-02-19T16:45:18.063Z,19.00
2018-02-19T16:47:45.631Z,21.08
2018-02-19T16:50:13.267Z,19.30
2018-02-19T16:52:40.818Z,19.62
2018-02-19T16:55:08.433Z,19.98
2018-02-19T16:57:36.763Z,20.00
2018-02-19T17:00:04.328Z,22.35
2018-02-19T17:02:31.927Z,21.27
2018-02-19T17:05:00.298Z,21.48
2018-02-19T17:07:28.639Z,23.42
2018-02-19T17:09:56.234Z,23.58
2018-02-19T17:12:24.709Z,22.48
2018-02-19T17:14:52.311Z,20.73
2018-02-19T17:17:19.907Z,21.65
2018-02-19T17:19:47.470Z,20.92
2018-02-19T17:22:15.058Z,18.77
2018-02-19T17:24:43.392Z,21.58
2018-02-19T17:27:11.015Z,20.58
2018-02-19T17:29:38.578Z,21.00
2018-02-19T17:32:06.148Z,21.85
2018-02-19T17:34:33.759Z,21.80
2018-02-19T17:37:02.107Z,19.98
2018-02-19T17:39:29.731Z,21.83
2018-02-19T17:41:57.304Z,20.08
2018-02-19T17:44:24.902Z,22.85
2018-02-19T17:46:52.479Z,21.25
2018-02-19T17:49:20.828Z,21.95
2018-02-19T17:51:48.387Z,22.35
2018-02-19T17:54:15.985Z,21.98
2018-02-19T17:56:43.571Z,21.35
2018-02-19T17:59:11.162Z,23.08
2018-02-19T18:01:38.771Z,22.15
2018-02-19T18:04:06.354Z,22.75
2018-02-19T18:06:33.956Z,21.27
2018-02-19T18:09:01.559Z,20.62
2018-02-19T18:11:29.280Z,21.30
2018-02-19T18:13:57.615Z,21.27
2018-02-19T18:16:25.211Z,21.87
2018-02-19T18:18:52.776Z,22.37
2018-02-19T18:21:21.156Z,21.27
2018-02-19T18:23:49.650Z,22.37
2018-02-19T18:26:17.255Z,22.85
2018-02-19T18:28:44.880Z,24.42
2018-02-19T18:31:12.459Z,21.33
2018-02-19T18:33:40.024Z,21.30
2018-02-19T18:36:07.652Z,22.80
2018-02-19T18:38:35.236Z,22.48
2018-02-19T18:41:02.845Z,23.25
2018-02-19T18:43:30.486Z,22.30
2018-02-19T18:45:58.535Z,24.55
2018-02-19T18:48:26.104Z,23.45
2018-02-19T18:50:54.615Z,24.20
2018-02-19T18:53:22.957Z,22.77
2018-02-19T18:55:50.535Z,23.02
2018-02-19T18:58:18.207Z,22.45
2018-02-19T19:00:45.791Z,23.45
2018-02-19T19:03:13.441Z,22.90
2018-02-19T19:05:41.847Z,22.60
2018-02-19T19:08:21.171Z,23.08
2018-02-19T19:10:56.516Z,23.40
2018-02-19T19:13:24.109Z,22.98
2018-02-19T19:15:51.691Z,22.48
2018-02-19T19:18:19.313Z,25.85
2018-02-19T19:20:46.903Z,23.50
2018-02-19T19:23:14.470Z,23.30
2018-02-19T19:25:42.064Z,21.65
2018-02-19T19:28:09.636Z,22.98
2018-02-19T19:30:37.263Z,23.45
2018-02-19T19:33:05.696Z,20.42
2018-02-19T19:35:33.316Z,21.05
2018-02-19T19:38:00.895Z,21.77
2018-02-19T19:40:28.458Z,23.10
2018-02-19T19:42:56.066Z,21.58
2018-02-19T19:45:23.636Z,23.40
2018-02-19T19:47:52.106Z,23.27
2018-02-19T19:50:20.484Z,22.73
2018-02-19T19:52:48.827Z,25.50
2018-02-19T19:55:16.410Z,23.33
2018-02-19T19:57:44.020Z,22.83
2018-02-19T20:00:11.602Z,22.35
2018-02-19T20:02:40.299Z,23.80
2018-02-19T20:05:07.887Z,24.10
2018-02-19T20:07:36.263Z,24.12
2018-02-19T20:10:04.710Z,21.42
2018-02-19T20:12:32.335Z,24.55
2018-02-19T20:15:00.016Z,22.70
2018-02-19T20:17:27.600Z,23.12
2018-02-19T20:19:55.212Z,22.48
2018-02-19T20:22:22.879Z,23.52
2018-02-19T20:24:50.533Z,21.75
2018-02-19T20:27:18.148Z,23.98
2018-02-19T20:29:46.519Z,24.73
2018-02-19T20:32:14.086Z,24.73
2018-02-19T20:34:41.695Z,23.87
2018-02-19T20:37:09.294Z,24.33
2018-02-19T20:39:36.871Z,22.85
2018-02-19T20:42:05.338Z,23.70
2018-02-19T20:44:32.945Z,25.67
2018-02-19T20:47:00.615Z,25.17
2018-02-19T20:49:28.402Z,24.35
2018-02-19T20:51:56.211Z,25.60
2018-02-19T20:54:24.551Z,23.15
2018-02-19T20:56:52.153Z,24.42
2018-02-19T20:59:19.727Z,25.02
2018-02-19T21:01:47.336Z,25.30
2018-02-19T21:04:14.941Z,25.95
2018-02-19T21:06:42.595Z,25.10
2018-02-19T21:09:10.375Z,24.40
2018-02-19T21:11:37.999Z,24.42
2018-02-19T21:14:06.387Z,24.35
2018-02-19T21:16:34.030Z,25.37
2018-02-19T21:19:02.403Z,27.20
2018-02-19T21:21:29.980Z,25.10
2018-02-19T21:23:58.382Z,24.73
2018-02-19T21:26:25.982Z,24.98
2018-02-19T21:28:53.567Z,22.95
2018-02-19T21:31:21.955Z,23.60
2018-02-19T21:33:50.295Z,25.15
2018-02-19T21:36:18.034Z,24.87
2018-02-19T21:38:45.639Z,23.42
2018-02-19T21:41:14.000Z,25.88
2018-02-19T21:43:41.572Z,25.40
2018-02-19T21:46:09.927Z,26.62
2018-02-19T21:48:37.541Z,26.95
2018-02-19T21:51:05.892Z,26.17
2018-02-19T21:53:34.250Z,26.00
2018-02-19T21:56:01.808Z,24.67
2018-02-19T21:58:29.395Z,25.12
2018-02-19T22:00:57.732Z,25.40
2018-02-19T22:03:25.336Z,24.37
2018-02-19T22:05:52.915Z,24.33
2018-02-19T22:08:20.526Z,24.50
2018-02-19T22:10:48.110Z,26.25
2018-02-19T22:13:15.672Z,26.45
2018-02-19T22:15:43.276Z,25.27
2018-02-19T22:18:10.849Z,26.75
2018-02-19T22:20:38.568Z,26.40
2018-02-19T22:23:06.223Z,25.83
2018-02-19T22:25:33.854Z,27.85
2018-02-19T22:28:02.232Z,26.37
2018-02-19T22:30:30.606Z,25.40
2018-02-19T22:32:59.043Z,27.48
2018-02-19T22:35:26.638Z,26.12
2018-02-19T22:37:54.192Z,26.85
2018-02-19T22:40:21.782Z,25.83
2018-02-19T22:42:49.401Z,25.75
2018-02-19T22:45:17.011Z,26.42
2018-02-19T22:47:44.588Z,26.98
2018-02-19T22:50:12.235Z,25.88
2018-02-19T22:52:39.794Z,23.67
2018-02-19T22:55:07.359Z,26.20
2018-02-19T22:57:34.951Z,26.55
2018-02-19T23:00:02.572Z,26.77
2018-02-19T23:02:30.183Z,26.80
2018-02-19T23:04:57.739Z,27.33
2018-02-19T23:07:25.316Z,26.42
2018-02-19T23:09:53.686Z,25.48
2018-02-19T23:12:22.033Z,27.02
2018-02-19T23:14:49.635Z,24.10
2018-02-19T23:17:18.246Z,25.33
2018-02-19T23:19:45.803Z,23.15
2018-02-19T23:22:13.525Z,24.17
2018-02-19T23:24:41.864Z,24.15
2018-02-19T23:27:09.553Z,23.55
2018-02-19T23:29:37.288Z,26.73
2018-02-19T23:32:04.882Z,23.60
2018-02-19T23:34:33.262Z,23.23
2018-02-19T23:37:01.611Z,24.85
2018-02-19T23:39:29.263Z,25.37
2018-02-19T23:41:56.951Z,25.27
2018-02-19T23:44:24.611Z,23.80
2018-02-19T23:46:52.199Z,24.87
2018-02-19T23:49:19.770Z,23.92
2018-02-19T23:51:47.343Z,24.98
2018-02-19T23:54:19.790Z,22.75
2018-02-19T23:56:47.406Z,24.95
2018-02-19T23:59:14.970Z,25.25
